Time;durP1;ratioP1;P1;durP2;ratioP2;P2;SDS_P1;SDS_P2;PMS_P1;PMS_P2;Temp;Humidity;BMP_temperature;BMP_pressure;BME280_temperature;BME280_humidity;BME280_pressure;Samples;Min_cycle;Max_cycle;Signal;HPM_P1;HPM_P2
2021/06/03 00:03:58;;;;;;;19.73;16.70;;;23.00;52.10;;;;;;4816968;54;21481;-34
2021/06/03 00:08:59;;;;;;;20.55;16.65;;;23.00;52.10;;;;;;4798555;54;21087;-35
2021/06/03 00:14:00;;;;;;;18.08;16.12;;;23.00;52.00;;;;;;4797908;54;21107;-30
2021/06/03 00:19:05;;;;;;;17.85;16.02;;;23.00;52.00;;;;;;4799325;54;21470;-35
2021/06/03 00:24:08;;;;;;;17.02;15.20;;;23.00;52.00;;;;;;4795472;58;21047;-27
2021/06/03 00:29:11;;;;;;;17.10;15.30;;;23.00;52.60;;;;;;4827757;54;21022;-32
2021/06/03 00:34:12;;;;;;;17.20;15.38;;;23.00;52.00;;;;;;4812548;54;22005;-24
2021/06/03 00:39:12;;;;;;;17.05;15.27;;;23.00;52.00;;;;;;4795301;58;21018;-30
2021/06/03 00:44:13;;;;;;;15.98;14.30;;;23.00;52.60;;;;;;4814210;54;21700;-34
2021/06/03 00:49:14;;;;;;;16.87;14.27;;;23.00;52.00;;;;;;4825484;54;20983;-29
2021/06/03 00:54:16;;;;;;;16.83;15.07;;;23.00;52.00;;;;;;4815059;54;21235;-28
2021/06/03 00:59:16;;;;;;;16.08;14.38;;;23.00;52.00;;;;;;4836482;54;21321;-29
2021/06/03 01:04:20;;;;;;;16.08;14.48;;;23.00;52.00;;;;;;4823394;54;21010;-35
2021/06/03 01:09:31;;;;;;;16.42;14.73;;;23.00;52.00;;;;;;4843393;54;21465;-28
2021/06/03 01:14:47;;;;;;;16.12;14.32;;;23.00;52.00;;;;;;4821676;54;21059;-33
2021/06/03 01:19:50;;;;;;;15.20;13.60;;;23.00;51.90;;;;;;4821885;54;20987;-33
2021/06/03 01:24:56;;;;;;;15.52;13.93;;;23.00;51.90;;;;;;4883077;54;21323;-28
2021/06/03 01:30:24;;;;;;;16.03;14.33;;;23.00;51.90;;;;;;4856647;54;21067;-34
2021/06/03 01:35:30;;;;;;;15.13;13.52;;;23.00;51.90;;;;;;4806254;54;21047;-27
2021/06/03 01:40:33;;;;;;;15.20;13.60;;;23.00;51.90;;;;;;4811634;54;21046;-35
2021/06/03 01:45:34;;;;;;;16.42;13.90;;;23.00;51.90;;;;;;4801370;54;21007;-28
2021/06/03 01:50:36;;;;;;;15.05;13.45;;;23.00;51.90;;;;;;4806691;54;21074;-35
2021/06/03 01:55:37;;;;;;;14.35;12.85;;;23.00;51.90;;;;;;4795414;58;21183;-34
2021/06/03 02:00:39;;;;;;;15.45;13.25;;;23.00;51.90;;;;;;4866296;54;20975;-30
2021/06/03 02:05:40;;;;;;;14.57;12.98;;;23.00;51.90;;;;;;4805501;54;21071;-33
2021/06/03 02:10:41;;;;;;;14.82;13.20;;;23.00;52.40;;;;;;4805994;54;21466;-35
2021/06/03 02:15:54;;;;;;;14.07;12.57;;;23.00;51.80;;;;;;4857355;54;21066;-30
2021/06/03 02:20:56;;;;;;;13.80;12.40;;;23.00;51.80;;;;;;4814058;54;21015;-35
2021/06/03 02:26:00;;;;;;;13.98;12.48;;;23.00;51.80;;;;;;4836344;54;21493;-31
2021/06/03 02:31:01;;;;;;;13.98;12.48;;;23.00;51.80;;;;;;4794675;55;21564;-33
2021/06/03 02:36:02;;;;;;;13.90;12.50;;;23.00;51.80;;;;;;4806420;54;21051;-34
2021/06/03 02:41:06;;;;;;;13.40;12.00;;;22.90;51.70;;;;;;4805956;54;21667;-35
2021/06/03 02:46:07;;;;;;;12.98;11.65;;;22.90;51.70;;;;;;4820972;54;21102;-32
2021/06/03 02:51:08;;;;;;;14.27;12.20;;;22.90;51.70;;;;;;4802124;54;20991;-36
2021/06/03 02:56:09;;;;;;;13.05;11.75;;;22.90;51.70;;;;;;4802596;54;21063;-34
2021/06/03 03:01:10;;;;;;;13.77;11.65;;;22.90;51.70;;;;;;4798289;54;21114;-35
2021/06/03 03:06:11;;;;;;;13.05;11.65;;;22.90;51.70;;;;;;4813853;54;21087;-35
2021/06/03 03:11:12;;;;;;;12.68;11.32;;;22.90;51.70;;;;;;4934382;54;21058;-32
2021/06/03 03:16:12;;;;;;;13.90;12.13;;;22.90;51.70;;;;;;4821008;54;21022;-27
2021/06/03 03:21:13;;;;;;;12.90;11.60;;;22.90;51.60;;;;;;4830801;54;20995;-26
2021/06/03 03:26:14;;;;;;;13.27;11.88;;;22.90;51.60;;;;;;4818703;54;21057;-34
2021/06/03 03:31:15;;;;;;;12.60;11.30;;;22.90;51.60;;;;;;4795488;54;21019;-35
2021/06/03 03:36:16;;;;;;;12.48;11.02;;;22.90;51.60;;;;;;4805056;54;20996;-32
2021/06/03 03:41:17;;;;;;;13.48;11.68;;;22.90;51.50;;;;;;4808688;54;20983;-34
2021/06/03 03:46:18;;;;;;;12.45;11.15;;;22.90;51.50;;;;;;4799063;54;21545;-33
2021/06/03 03:51:19;;;;;;;11.90;10.70;;;22.90;51.50;;;;;;4816566;54;21521;-35
2021/06/03 03:56:20;;;;;;;12.85;11.45;;;22.90;51.50;;;;;;4795475;58;21470;-32
2021/06/03 04:01:22;;;;;;;12.02;10.82;;;22.90;51.50;;;;;;4805965;54;20983;-29
2021/06/03 04:06:23;;;;;;;12.48;11.18;;;22.90;51.50;;;;;;4812663;54;21615;-34
2021/06/03 04:11:24;;;;;;;12.75;11.30;;;22.80;51.40;;;;;;4832367;54;21075;-34
2021/06/03 04:16:25;;;;;;;11.25;10.15;;;22.90;51.50;;;;;;4864695;54;21038;-20
2021/06/03 04:21:26;;;;;;;12.30;11.00;;;22.90;51.50;;;;;;4818935;54;21515;-30
2021/06/03 04:26:27;;;;;;;12.48;11.18;;;22.90;51.50;;;;;;4804895;54;21031;-32
2021/06/03 04:31:28;;;;;;;12.07;10.55;;;22.90;51.50;;;;;;4797083;54;21047;-34
2021/06/03 04:36:29;;;;;;;12.50;10.77;;;22.90;51.60;;;;;;4811371;54;21011;-34
2021/06/03 04:41:30;;;;;;;11.35;10.18;;;22.90;51.60;;;;;;4804651;54;21561;-32
2021/06/03 04:46:31;;;;;;;12.23;10.43;;;22.90;51.70;;;;;;4796960;54;20995;-29
2021/06/03 04:51:31;;;;;;;11.50;9.65;;;22.90;51.70;;;;;;4839959;54;21544;-31
2021/06/03 04:56:33;;;;;;;12.43;10.45;;;22.90;51.70;;;;;;4805516;54;20992;-29
2021/06/03 05:01:34;;;;;;;11.27;10.07;;;22.90;51.70;;;;;;4807245;54;21007;-35
2021/06/03 05:06:34;;;;;;;12.63;10.35;;;22.80;51.60;;;;;;4872251;54;21063;-34
2021/06/03 05:11:35;;;;;;;11.45;10.23;;;22.80;51.60;;;;;;4860293;54;21070;-33
2021/06/03 05:16:36;;;;;;;10.52;9.43;;;22.80;51.60;;;;;;4808452;54;21074;-32
2021/06/03 05:21:37;;;;;;;10.98;9.85;;;22.80;51.60;;;;;;4795424;58;20991;-34
2021/06/03 05:26:38;;;;;;;11.85;9.65;;;22.80;51.60;;;;;;4832758;54;21027;-28
2021/06/03 05:31:39;;;;;;;11.80;9.73;;;22.80;51.50;;;;;;4798080;54;21043;-32
2021/06/03 05:36:40;;;;;;;9.77;8.70;;;22.80;51.50;;;;;;4809734;54;21472;-26
2021/06/03 05:41:42;;;;;;;13.65;10.20;;;22.80;51.40;;;;;;4807256;54;21051;-34
2021/06/03 05:46:43;;;;;;;10.77;9.10;;;22.80;51.30;;;;;;4829900;54;21003;-27
2021/06/03 05:51:44;;;;;;;10.65;9.55;;;22.80;51.30;;;;;;4819249;54;21011;-32
2021/06/03 05:56:45;;;;;;;10.75;9.60;;;22.80;51.20;;;;;;4808278;54;21051;-33
2021/06/03 06:01:46;;;;;;;10.57;9.48;;;22.80;51.20;;;;;;4808516;54;21063;-34
2021/06/03 06:06:46;;;;;;;10.90;9.80;;;22.80;51.10;;;;;;4815716;54;20983;-34
2021/06/03 06:11:47;;;;;;;10.73;9.63;;;22.80;51.10;;;;;;4799319;54;21039;-28
2021/06/03 06:16:48;;;;;;;9.57;8.57;;;22.80;51.00;;;;;;4814165;54;21597;-29
2021/06/03 06:21:52;;;;;;;11.40;8.90;;;22.80;51.10;;;;;;4794931;58;21103;-32
2021/06/03 06:26:53;;;;;;;12.32;10.07;;;22.80;51.00;;;;;;4833260;54;21588;-32
2021/06/03 06:31:54;;;;;;;12.10;9.68;;;22.80;51.10;;;;;;4827076;54;21051;-31
2021/06/03 06:36:55;;;;;;;10.85;9.43;;;22.80;51.00;;;;;;4812084;54;21000;-31
2021/06/03 06:41:56;;;;;;;10.10;9.07;;;22.80;51.00;;;;;;4802954;54;21007;-28
2021/06/03 06:46:57;;;;;;;11.00;9.85;;;22.80;50.90;;;;;;4799928;54;21872;-32
2021/06/03 06:51:58;;;;;;;11.27;9.85;;;22.80;50.90;;;;;;4812639;54;21018;-31
2021/06/03 06:56:58;;;;;;;11.60;9.77;;;22.80;50.90;;;;;;4794889;58;21007;-34
2021/06/03 07:01:59;;;;;;;11.57;9.73;;;22.80;50.90;;;;;;4807873;54;20979;-32
2021/06/03 07:07:00;;;;;;;11.73;9.48;;;22.80;50.80;;;;;;4794366;58;21058;-31
2021/06/03 07:12:01;;;;;;;11.20;9.85;;;22.80;50.90;;;;;;4804236;54;21031;-34
2021/06/03 07:17:02;;;;;;;12.75;9.70;;;22.80;51.00;;;;;;4796511;54;21106;-30
2021/06/03 07:22:06;;;;;;;10.48;9.35;;;22.90;51.30;;;;;;4810195;54;21075;-29
2021/06/03 07:27:08;;;;;;;11.63;10.00;;;22.90;51.50;;;;;;4830931;54;21513;-29
2021/06/03 07:32:09;;;;;;;10.30;9.18;;;23.00;51.70;;;;;;4804082;54;20994;-32
2021/06/03 07:37:10;;;;;;;12.30;10.10;;;23.00;51.80;;;;;;4809135;54;21051;-32
2021/06/03 07:42:12;;;;;;;11.20;10.00;;;23.00;52.00;;;;;;4794401;58;20979;-31
2021/06/03 07:47:14;;;;;;;13.60;11.20;;;23.10;52.20;;;;;;4794509;58;21520;-24
2021/06/03 07:52:14;;;;;;;13.30;10.70;;;23.10;52.30;;;;;;4816747;54;21071;-31
2021/06/03 07:57:15;;;;;;;13.90;11.20;;;23.10;52.40;;;;;;4801496;54;21442;-34
2021/06/03 08:02:16;;;;;;;13.30;11.80;;;23.10;52.50;;;;;;4802412;54;21011;-33
2021/06/03 08:07:17;;;;;;;15.00;12.95;;;23.20;52.50;;;;;;4795402;58;21003;-34
2021/06/03 08:12:18;;;;;;;16.65;14.05;;;23.20;52.60;;;;;;4793867;54;21058;-23
2021/06/03 08:17:18;;;;;;;17.67;13.43;;;23.20;52.80;;;;;;4829961;54;20987;-27
2021/06/03 08:22:19;;;;;;;17.23;14.77;;;23.20;52.90;;;;;;4800686;54;21019;-31
2021/06/03 08:27:20;;;;;;;131.95;102.03;;;23.20;53.00;;;;;;4840767;54;21074;-31
2021/06/03 08:32:21;;;;;;;186.68;140.82;;;23.30;52.40;;;;;;4829062;54;21545;-28
2021/06/03 08:37:22;;;;;;;141.98;108.10;;;23.20;50.20;;;;;;4808597;54;20999;-31
2021/06/03 08:42:23;;;;;;;125.03;99.05;;;23.20;49.50;;;;;;4794267;54;21061;-24
2021/06/03 08:47:24;;;;;;;114.30;82.97;;;23.20;49.00;;;;;;4795835;54;21256;-26
2021/06/03 08:52:24;;;;;;;103.45;76.37;;;23.30;48.50;;;;;;4794644;55;21083;-31
2021/06/03 08:57:25;;;;;;;92.40;67.32;;;23.30;48.10;;;;;;4807684;54;21130;-31
2021/06/03 09:02:27;;;;;;;81.22;58.90;;;23.30;47.40;;;;;;4806988;54;21027;-31
2021/06/03 09:07:38;;;;;;;106.53;73.03;;;23.20;47.70;;;;;;4794418;58;21497;-32
2021/06/03 09:12:39;;;;;;;114.55;85.28;;;23.20;47.50;;;;;;4794132;58;21054;-30
2021/06/03 09:17:47;;;;;;;128.45;91.00;;;23.30;47.20;;;;;;4826709;54;20995;-26
2021/06/03 09:22:48;;;;;;;101.60;72.30;;;23.30;46.70;;;;;;4805828;54;21050;-29
2021/06/03 09:27:49;;;;;;;104.90;70.43;;;23.30;46.50;;;;;;4808595;54;21497;-37
2021/06/03 09:32:54;;;;;;;104.07;69.35;;;23.30;46.30;;;;;;4790963;55;21074;-35
2021/06/03 09:38:05;;;;;;;85.68;59.92;;;23.30;46.00;;;;;;4794612;58;21058;-28
2021/06/03 09:43:07;;;;;;;80.78;57.45;;;23.30;46.10;;;;;;4794137;58;21055;-20
2021/06/03 09:48:40;;;;;;;80.53;54.97;;;23.20;45.90;;;;;;4840335;54;21518;-38
2021/06/03 09:54:05;;;;;;;70.07;47.03;;;23.20;45.90;;;;;;4793593;54;21023;-32
2021/06/03 09:59:15;;;;;;;74.60;50.08;;;23.20;45.40;;;;;;4797891;54;22001;-31
2021/06/03 10:04:39;;;;;;;69.10;49.35;;;23.20;45.30;;;;;;4811541;54;21446;-31
2021/06/03 10:09:56;;;;;;;72.12;48.20;;;23.30;45.50;;;;;;4842659;54;21532;-37
2021/06/03 10:15:36;;;;;;;65.30;44.43;;;23.30;46.30;;;;;;4798216;54;20967;-32
2021/06/03 10:20:46;;;;;;;55.92;40.67;;;23.30;46.90;;;;;;4807285;54;21010;-30
2021/06/03 10:25:56;;;;;;;65.00;43.50;;;23.40;47.40;;;;;;4815120;54;21083;-33
2021/06/03 10:31:01;;;;;;;60.90;40.53;;;23.40;48.10;;;;;;4794542;58;21003;-34
2021/06/03 10:36:06;;;;;;;56.97;40.67;;;23.50;48.30;;;;;;4799163;54;21549;-29
2021/06/03 10:41:12;;;;;;;56.13;40.55;;;23.50;48.50;;;;;;4810174;54;21038;-32
2021/06/03 10:46:12;;;;;;;54.13;38.80;;;23.50;48.70;;;;;;4816212;54;21526;-35
2021/06/03 10:51:15;;;;;;;58.50;40.65;;;23.50;48.90;;;;;;4844508;54;21030;-37
2021/06/03 10:56:22;;;;;;;53.13;38.72;;;23.50;49.30;;;;;;4810291;54;21085;-35
2021/06/03 11:01:24;;;;;;;50.58;36.47;;;23.50;49.60;;;;;;4795365;56;21501;-34
2021/06/03 11:06:31;;;;;;;55.97;40.03;;;23.50;49.60;;;;;;4794999;56;20995;-30
2021/06/03 11:12:04;;;;;;;59.63;40.15;;;23.50;49.40;;;;;;4793979;55;21070;-24
2021/06/03 11:17:05;;;;;;;60.17;42.17;;;23.50;49.70;;;;;;4866380;54;20987;-32
2021/06/03 11:22:08;;;;;;;55.20;38.33;;;23.50;49.80;;;;;;4796680;54;21663;-28
2021/06/03 11:27:18;;;;;;;52.70;39.10;;;23.50;49.90;;;;;;4841612;54;21821;-34
2021/06/03 11:32:21;;;;;;;51.33;38.08;;;23.50;50.10;;;;;;4794326;55;20972;-34
2021/06/03 11:37:25;;;;;;;55.22;38.30;;;23.50;50.90;;;;;;4802649;54;21051;-23
2021/06/03 11:42:41;;;;;;;59.50;41.50;;;23.60;50.50;;;;;;4802894;54;21059;-37
2021/06/03 11:48:10;;;;;;;50.53;36.72;;;23.60;50.40;;;;;;4805098;54;22113;-31
2021/06/03 11:53:14;;;;;;;54.75;37.28;;;23.50;50.40;;;;;;4800393;54;21179;-28
2021/06/03 11:58:51;;;;;;;57.88;37.10;;;23.60;50.50;;;;;;4808436;54;21067;-35
2021/06/03 12:07:39;;;;;;;49.20;36.65;;;23.60;50.60;;;;;;4807476;54;21557;-32
2021/06/03 12:12:41;;;;;;;47.50;34.95;;;23.60;51.50;;;;;;4797959;54;21474;-26
2021/06/03 12:17:43;;;;;;;46.37;34.88;;;23.60;52.10;;;;;;4822918;54;21618;-34
2021/06/03 12:22:44;;;;;;;45.70;33.92;;;23.70;52.40;;;;;;4807591;54;20975;-35
2021/06/03 12:27:47;;;;;;;46.53;35.00;;;23.70;52.80;;;;;;4800896;54;21569;-33
2021/06/03 12:34:39;;;;;;;54.40;31.70;;;23.70;53.00;;;;;;4813018;54;21019;-34
2021/06/03 12:39:40;;;;;;;45.40;32.85;;;23.80;53.20;;;;;;4800577;54;21011;-23
2021/06/03 12:44:53;;;;;;;41.70;31.50;;;23.80;53.60;;;;;;4820746;54;20984;-40
2021/06/03 12:50:10;;;;;;;48.20;31.45;;;23.80;54.00;;;;;;4794304;58;21577;-31
2021/06/03 12:55:12;;;;;;;44.42;30.90;;;23.90;54.20;;;;;;4807293;54;20987;-36
2021/06/03 13:00:22;;;;;;;42.62;31.25;;;23.90;54.50;;;;;;4811353;54;20988;-33
2021/06/03 13:05:23;;;;;;;41.40;31.45;;;23.90;54.70;;;;;;4794891;58;21564;-35
2021/06/03 13:10:24;;;;;;;48.30;30.65;;;23.90;54.90;;;;;;4823936;54;21092;-31
2021/06/03 13:15:26;;;;;;;37.58;30.20;;;23.90;55.00;;;;;;4835612;54;21453;-29
2021/06/03 13:20:33;;;;;;;38.22;29.70;;;24.00;55.00;;;;;;4808786;54;21043;-33
2021/06/03 13:25:46;;;;;;;38.20;28.42;;;24.00;55.30;;;;;;4818617;54;21106;-33
2021/06/03 13:30:50;;;;;;;40.53;30.45;;;24.00;55.50;;;;;;4794179;58;21000;-28
2021/06/03 13:35:55;;;;;;;40.60;29.83;;;24.00;55.70;;;;;;4831639;54;21019;-32
2021/06/03 13:40:58;;;;;;;39.85;29.27;;;24.00;55.80;;;;;;4820546;54;21003;-31
2021/06/03 13:46:05;;;;;;;44.63;30.00;;;24.00;55.90;;;;;;4826208;54;22212;-31
2021/06/03 13:51:18;;;;;;;40.17;28.98;;;24.00;55.90;;;;;;4805825;54;21982;-35
2021/06/03 13:56:27;;;;;;;38.17;29.50;;;24.00;55.90;;;;;;4814663;54;20987;-34
2021/06/03 14:01:49;;;;;;;35.80;27.70;;;23.90;55.80;;;;;;4795289;54;21514;-33
2021/06/03 14:06:56;;;;;;;37.70;29.52;;;23.90;56.20;;;;;;4808389;54;21521;-20
2021/06/03 14:12:35;;;;;;;38.53;27.92;;;23.90;55.90;;;;;;4808202;54;21541;-32
2021/06/03 14:17:36;;;;;;;36.50;27.52;;;23.90;56.50;;;;;;4852716;54;21481;-26
2021/06/03 14:22:40;;;;;;;35.00;28.17;;;23.90;56.00;;;;;;4819161;54;21553;-33
2021/06/03 14:27:49;;;;;;;33.15;27.58;;;23.90;56.00;;;;;;4846915;54;21067;-28
2021/06/03 14:33:01;;;;;;;38.25;28.30;;;23.90;56.10;;;;;;4801317;54;21486;-32
2021/06/03 14:38:11;;;;;;;34.72;27.73;;;23.90;56.40;;;;;;4816561;54;21075;-33
2021/06/03 14:43:54;;;;;;;34.28;26.85;;;23.90;56.50;;;;;;4794326;58;21055;-21
2021/06/03 14:48:58;;;;;;;35.22;26.90;;;23.90;56.50;;;;;;4794316;58;21011;-28
2021/06/03 14:53:59;;;;;;;33.70;26.25;;;23.90;56.50;;;;;;4820240;54;21504;-30
2021/06/03 14:59:00;;;;;;;33.13;25.88;;;23.90;56.50;;;;;;4842243;54;21047;-33
2021/06/03 15:04:01;;;;;;;33.95;27.60;;;23.90;56.50;;;;;;4819796;54;21035;-31
2021/06/03 15:09:02;;;;;;;35.17;29.05;;;24.00;56.50;;;;;;4794746;58;21055;-34
2021/06/03 15:14:03;;;;;;;35.40;27.95;;;23.90;56.20;;;;;;4793795;58;21027;-36
2021/06/03 15:19:04;;;;;;;34.92;27.13;;;23.80;56.30;;;;;;4810847;54;21095;-33
2021/06/03 15:24:05;;;;;;;36.30;29.83;;;23.80;56.20;;;;;;4814630;54;20999;-31
2021/06/03 15:29:06;;;;;;;35.13;28.67;;;23.80;56.30;;;;;;4805926;54;21008;-36
2021/06/03 15:34:07;;;;;;;36.65;28.58;;;23.70;56.20;;;;;;4793931;58;21478;-35
2021/06/03 15:39:11;;;;;;;34.80;29.20;;;23.70;56.20;;;;;;4804922;54;21067;-30
2021/06/03 15:44:12;;;;;;;33.55;28.30;;;23.70;56.20;;;;;;4813152;54;21620;-30
2021/06/03 15:49:18;;;;;;;36.67;29.92;;;23.60;56.20;;;;;;4800127;54;21067;-34
2021/06/03 15:54:20;;;;;;;38.70;30.42;;;23.60;56.10;;;;;;4794292;58;21557;-21
2021/06/03 15:59:21;;;;;;;37.05;29.65;;;23.60;56.00;;;;;;4893253;54;21101;-31
2021/06/03 16:04:22;;;;;;;37.70;30.62;;;23.60;55.90;;;;;;4794665;58;21043;-34
2021/06/03 16:09:23;;;;;;;34.92;30.00;;;23.60;55.90;;;;;;4796688;54;21140;-29
2021/06/03 16:14:24;;;;;;;34.47;30.27;;;23.50;55.80;;;;;;4793265;58;21126;-36
2021/06/03 16:19:25;;;;;;;38.22;30.95;;;23.50;55.80;;;;;;4807873;54;21012;-33
2021/06/03 16:24:26;;;;;;;36.20;30.52;;;23.50;55.70;;;;;;4799070;54;21052;-32
2021/06/03 16:29:27;;;;;;;35.22;30.50;;;23.50;55.70;;;;;;4802417;54;21102;-36
2021/06/03 16:34:27;;;;;;;36.63;29.77;;;23.50;55.70;;;;;;4833675;54;21008;-36
2021/06/03 16:39:28;;;;;;;38.28;30.67;;;23.50;55.60;;;;;;4800571;54;21003;-29
2021/06/03 16:44:30;;;;;;;39.58;31.23;;;23.50;55.60;;;;;;4795420;58;20987;-31
2021/06/03 16:49:31;;;;;;;36.17;29.95;;;23.50;55.50;;;;;;4808871;54;21023;-29
2021/06/03 16:54:33;;;;;;;35.92;30.15;;;23.40;55.50;;;;;;4794006;58;21046;-26
2021/06/03 16:59:34;;;;;;;35.53;30.05;;;23.40;55.40;;;;;;4821877;54;21062;-36
2021/06/03 17:04:34;;;;;;;37.80;28.73;;;23.40;55.40;;;;;;4798026;54;21074;-42
2021/06/03 17:09:35;;;;;;;35.78;29.20;;;23.50;55.40;;;;;;4825317;54;20983;-32
2021/06/03 17:14:36;;;;;;;36.65;30.20;;;23.40;55.40;;;;;;4795976;54;21061;-36
2021/06/03 17:19:38;;;;;;;32.63;28.87;;;23.40;55.40;;;;;;4794730;58;21001;-35
2021/06/03 17:24:38;;;;;;;35.30;29.40;;;23.40;55.40;;;;;;4796818;54;21533;-25
2021/06/03 17:29:39;;;;;;;35.25;30.55;;;23.40;55.90;;;;;;4861366;54;21069;-36
2021/06/03 17:34:40;;;;;;;34.88;29.45;;;23.40;55.30;;;;;;4821528;54;21084;-36
2021/06/03 17:39:41;;;;;;;33.83;30.20;;;23.40;55.20;;;;;;4844283;54;21593;-26
2021/06/03 17:44:42;;;;;;;36.72;29.48;;;23.40;55.20;;;;;;4797463;54;20987;-35
2021/06/03 17:49:42;;;;;;;34.03;29.65;;;23.40;55.20;;;;;;4797792;54;21481;-34
2021/06/03 17:54:46;;;;;;;38.72;31.10;;;23.40;55.10;;;;;;4798529;54;21063;-23
2021/06/03 17:59:47;;;;;;;37.00;32.28;;;23.40;55.10;;;;;;4828159;54;21042;-37
2021/06/03 18:04:48;;;;;;;35.83;30.58;;;23.40;55.10;;;;;;4794390;58;20983;-35
2021/06/03 18:09:48;;;;;;;34.67;30.25;;;23.40;55.00;;;;;;4796377;54;21047;-33
2021/06/03 18:14:50;;;;;;;36.00;31.67;;;23.40;55.00;;;;;;4806623;54;21018;-36
2021/06/03 18:19:51;;;;;;;36.53;30.98;;;23.40;55.00;;;;;;4836804;54;21067;-23
2021/06/03 18:24:53;;;;;;;37.88;32.35;;;23.40;54.90;;;;;;4794625;58;21504;-30
2021/06/03 18:29:54;;;;;;;36.53;29.87;;;23.40;54.80;;;;;;4822027;54;21008;-36
2021/06/03 18:34:54;;;;;;;34.70;30.08;;;23.30;54.80;;;;;;4838300;54;21007;-36
2021/06/03 18:39:55;;;;;;;35.17;30.40;;;23.30;54.80;;;;;;4796268;54;20999;-34
2021/06/03 18:44:56;;;;;;;35.63;30.62;;;23.30;54.70;;;;;;4822711;54;21921;-35
2021/06/03 18:49:57;;;;;;;37.35;30.37;;;23.30;54.60;;;;;;4797490;54;21058;-37
2021/06/03 18:54:58;;;;;;;34.70;29.75;;;23.30;54.50;;;;;;4800589;54;21576;-25
2021/06/03 18:59:59;;;;;;;33.25;29.65;;;23.40;54.60;;;;;;4797195;54;21475;-35
2021/06/03 19:05:00;;;;;;;34.45;29.73;;;23.30;54.50;;;;;;4795514;58;21032;-22
2021/06/03 19:10:03;;;;;;;35.88;30.80;;;23.30;54.40;;;;;;4798131;54;21038;-35
2021/06/03 19:15:06;;;;;;;32.78;28.67;;;23.30;55.00;;;;;;4794361;55;21520;-25
2021/06/03 19:20:09;;;;;;;34.03;28.55;;;23.30;54.40;;;;;;4839160;54;21466;-29
2021/06/03 19:25:12;;;;;;;33.83;28.90;;;23.30;54.30;;;;;;4815057;54;21047;-37
2021/06/03 19:30:14;;;;;;;32.58;28.98;;;23.30;54.30;;;;;;4836959;54;21007;-36
2021/06/03 19:35:18;;;;;;;32.33;27.83;;;23.30;54.20;;;;;;4809476;54;21070;-37
2021/06/03 19:40:20;;;;;;;31.15;26.98;;;23.30;54.20;;;;;;4834550;54;21118;-33
2021/06/03 19:45:22;;;;;;;31.83;27.08;;;23.30;54.10;;;;;;4850067;54;20991;-34
2021/06/03 19:50:26;;;;;;;32.85;27.40;;;23.30;54.10;;;;;;4838296;54;20999;-35
2021/06/03 19:55:28;;;;;;;32.67;27.80;;;23.30;54.10;;;;;;4851406;54;21058;-28
2021/06/03 20:00:37;;;;;;;31.17;25.70;;;23.30;54.00;;;;;;4802421;54;21039;-33
2021/06/03 20:05:40;;;;;;;30.67;26.40;;;23.30;54.00;;;;;;4803058;54;21026;-31
2021/06/03 20:10:47;;;;;;;30.08;25.45;;;23.30;54.00;;;;;;4885500;54;21575;-35
2021/06/03 20:15:48;;;;;;;32.38;27.55;;;23.30;54.00;;;;;;4839727;54;20991;-35
2021/06/03 20:20:49;;;;;;;29.70;24.67;;;23.30;53.90;;;;;;4834156;54;21003;-33
2021/06/03 20:25:52;;;;;;;28.95;25.73;;;23.30;53.90;;;;;;4849167;54;21497;-33
2021/06/03 20:30:55;;;;;;;27.92;24.73;;;23.30;53.80;;;;;;4806580;54;21477;-27
2021/06/03 20:35:58;;;;;;;27.85;24.73;;;23.30;53.80;;;;;;4797973;54;21047;-35
2021/06/03 20:41:00;;;;;;;29.08;25.50;;;23.30;53.70;;;;;;4795525;54;20999;-30
2021/06/03 20:46:01;;;;;;;26.42;23.58;;;23.20;53.60;;;;;;4816479;54;21020;-27
2021/06/03 20:51:02;;;;;;;28.27;24.87;;;23.30;53.60;;;;;;4830591;54;22321;-27
2021/06/03 20:56:04;;;;;;;26.70;22.87;;;23.30;53.60;;;;;;4830481;54;21031;-34
2021/06/03 21:01:05;;;;;;;28.40;24.80;;;23.20;53.60;;;;;;4836561;54;21015;-29
2021/06/03 21:06:06;;;;;;;27.52;23.55;;;23.20;53.60;;;;;;4796251;58;21526;-36
2021/06/03 21:11:07;;;;;;;26.25;22.83;;;23.20;53.50;;;;;;4858394;54;21027;-32
2021/06/03 21:16:08;;;;;;;27.40;24.02;;;23.30;53.70;;;;;;4825761;54;21058;-31
2021/06/03 21:21:09;;;;;;;24.65;21.90;;;23.20;53.50;;;;;;4795729;58;21168;-35
2021/06/03 21:26:10;;;;;;;26.17;22.90;;;23.20;53.50;;;;;;4794351;58;21111;-34
2021/06/03 21:31:11;;;;;;;27.55;22.45;;;23.20;53.50;;;;;;4812235;54;21130;-25
2021/06/03 21:36:12;;;;;;;24.87;20.80;;;23.20;53.50;;;;;;4813551;54;21023;-31
2021/06/03 21:41:14;;;;;;;25.37;22.48;;;23.20;53.50;;;;;;4816756;54;21027;-33
2021/06/03 21:46:15;;;;;;;25.23;21.60;;;23.20;53.50;;;;;;4836690;54;21058;-33
2021/06/03 21:51:16;;;;;;;25.33;21.52;;;23.20;53.40;;;;;;4816818;54;21534;-36
2021/06/03 21:56:18;;;;;;;24.75;21.83;;;23.20;53.50;;;;;;4794956;58;21031;-36
2021/06/03 22:01:19;;;;;;;26.25;22.27;;;23.20;53.40;;;;;;4810777;54;20991;-32
2021/06/03 22:06:20;;;;;;;24.52;21.40;;;23.20;53.40;;;;;;4808098;54;21051;-35
2021/06/03 22:11:20;;;;;;;23.45;20.85;;;23.20;54.00;;;;;;4796607;54;21020;-35
2021/06/03 22:16:21;;;;;;;23.27;20.77;;;23.20;53.40;;;;;;4807020;54;21079;-32
2021/06/03 22:21:22;;;;;;;23.75;21.08;;;23.20;53.40;;;;;;4817664;54;21078;-35
2021/06/03 22:26:23;;;;;;;22.90;20.40;;;23.20;53.30;;;;;;4840359;54;21087;-32
2021/06/03 22:31:24;;;;;;;24.67;20.35;;;23.20;53.30;;;;;;4826140;54;21109;-31
2021/06/03 22:36:26;;;;;;;22.37;19.90;;;23.20;53.30;;;;;;4841074;54;21011;-36
2021/06/03 22:41:27;;;;;;;22.37;19.62;;;23.20;53.30;;;;;;4811221;54;21027;-22
2021/06/03 22:46:28;;;;;;;23.15;19.52;;;23.20;53.30;;;;;;4795362;58;21473;-31
2021/06/03 22:51:32;;;;;;;22.80;19.62;;;23.20;53.90;;;;;;4795106;58;21047;-35
2021/06/03 22:56:41;;;;;;;21.98;18.92;;;23.20;53.20;;;;;;4858170;54;21047;-34
2021/06/03 23:01:44;;;;;;;21.90;19.40;;;23.20;53.20;;;;;;4816950;54;21481;-25
2021/06/03 23:06:45;;;;;;;22.17;19.05;;;23.20;53.30;;;;;;4816786;54;21314;-30
2021/06/03 23:11:51;;;;;;;21.35;18.75;;;23.20;53.20;;;;;;4852352;54;21478;-33
2021/06/03 23:16:52;;;;;;;20.90;18.52;;;23.20;53.20;;;;;;4822346;54;21022;-26
2021/06/03 23:21:59;;;;;;;22.10;19.33;;;23.20;53.10;;;;;;4831384;54;21078;-36
2021/06/03 23:27:02;;;;;;;22.17;19.60;;;23.20;53.10;;;;;;4796114;54;21091;-33
2021/06/03 23:32:03;;;;;;;22.10;18.95;;;23.20;53.10;;;;;;4844424;54;21043;-21
2021/06/03 23:37:04;;;;;;;21.55;18.62;;;23.20;53.10;;;;;;4838806;54;20991;-29
2021/06/03 23:42:06;;;;;;;21.05;18.50;;;23.20;53.10;;;;;;4795661;58;21019;-21
2021/06/03 23:47:07;;;;;;;21.00;18.10;;;23.20;53.10;;;;;;4843781;54;21007;-34
2021/06/03 23:52:08;;;;;;;19.33;17.37;;;23.10;53.00;;;;;;4827068;54;21504;-30
2021/06/03 23:57:09;;;;;;;19.23;16.75;;;23.20;53.00;;;;;;4826198;54;21026;-29
